createdAt,value
2018-08-03T00:01:11.789Z,25.80
2018-08-03T00:02:11.765Z,25.80
2018-08-03T00:04:05.221Z,25.85
2018-08-03T00:05:05.233Z,25.80
2018-08-03T00:06:58.284Z,25.85
2018-08-03T00:07:58.290Z,25.85
2018-08-03T00:09:51.318Z,25.87
2018-08-03T00:10:51.349Z,25.85
2018-08-03T00:12:44.393Z,25.83
2018-08-03T00:13:44.404Z,25.83
2018-08-03T00:15:37.427Z,25.80
2018-08-03T00:16:37.457Z,25.76
2018-08-03T00:18:30.514Z,25.79
2018-08-03T00:19:30.518Z,25.70
2018-08-03T00:21:23.540Z,25.64
2018-08-03T00:22:23.570Z,25.61
2018-08-03T00:24:17.025Z,25.60
2018-08-03T00:25:17.035Z,25.60
2018-08-03T00:27:10.066Z,25.58
2018-08-03T00:28:10.091Z,25.52
2018-08-03T00:30:03.138Z,25.55
2018-08-03T00:31:03.148Z,25.54
2018-08-03T00:32:56.193Z,25.54
2018-08-03T00:33:56.204Z,25.51
2018-08-03T00:35:49.234Z,25.40
2018-08-03T00:36:49.263Z,25.38
2018-08-03T00:38:42.309Z,25.36
2018-08-03T00:39:42.318Z,25.28
2018-08-03T00:41:35.248Z,25.36
2018-08-03T00:42:35.276Z,25.33
2018-08-03T00:44:28.742Z,25.30
2018-08-03T00:45:28.725Z,25.23
2018-08-03T00:47:21.648Z,25.18
2018-08-03T00:48:21.681Z,25.23
2018-08-03T00:50:15.115Z,25.15
2018-08-03T00:51:15.126Z,25.17
2018-08-03T00:53:08.046Z,25.09
2018-08-03T00:54:08.074Z,25.08
2018-08-03T00:56:01.017Z,25.08
2018-08-03T00:57:01.027Z,25.08
2018-08-03T00:58:53.983Z,24.95
2018-08-03T00:59:53.976Z,24.98
2018-08-03T01:01:46.898Z,25.03
2018-08-03T01:02:46.930Z,25.03
2018-08-03T01:04:39.870Z,24.91
2018-08-03T01:05:39.880Z,24.96
2018-08-03T01:07:32.801Z,24.91
2018-08-03T01:08:32.830Z,24.77
2018-08-03T01:10:25.773Z,24.77
2018-08-03T01:11:25.786Z,24.84
2018-08-03T01:13:19.198Z,24.84
2018-08-03T01:14:19.227Z,24.78
2018-08-03T01:16:12.175Z,24.77
2018-08-03T01:17:12.184Z,24.73
2018-08-03T01:19:05.112Z,24.83
2018-08-03T01:20:05.140Z,24.76
2018-08-03T01:21:58.090Z,24.67
2018-08-03T01:22:58.100Z,24.69
2018-08-03T01:24:51.025Z,24.62
2018-08-03T01:25:51.049Z,24.60
2018-08-03T01:27:43.997Z,24.62
2018-08-03T01:28:44.004Z,24.52
2018-08-03T01:30:36.943Z,24.60
2018-08-03T01:31:36.952Z,24.53
2018-08-03T01:33:29.874Z,24.60
2018-08-03T01:34:29.903Z,24.55
2018-08-03T01:36:22.849Z,24.49
2018-08-03T01:37:22.857Z,24.55
2018-08-03T01:39:15.787Z,24.49
2018-08-03T01:40:15.814Z,24.55
2018-08-03T01:42:08.762Z,24.35
2018-08-03T01:43:08.783Z,24.40
2018-08-03T01:45:01.700Z,24.30
2018-08-03T01:46:01.729Z,24.25
2018-08-03T01:47:54.677Z,24.30
2018-08-03T01:48:54.681Z,24.25
2018-08-03T01:50:47.605Z,24.21
2018-08-03T01:51:47.634Z,24.16
2018-08-03T01:53:40.571Z,24.16
2018-08-03T01:54:40.579Z,24.12
2018-08-03T01:56:33.520Z,23.98
2018-08-03T01:57:33.531Z,24.08
2018-08-03T01:59:26.458Z,23.97
2018-08-03T02:00:26.496Z,24.03
2018-08-03T02:02:19.922Z,23.98
2018-08-03T02:03:19.974Z,23.94
2018-08-03T02:05:12.858Z,23.94
2018-08-03T02:06:12.880Z,23.93
2018-08-03T02:08:05.847Z,23.84
2018-08-03T02:09:05.834Z,23.84
2018-08-03T02:10:59.751Z,23.84
2018-08-03T02:11:59.782Z,23.87
2018-08-03T02:13:52.717Z,23.84
2018-08-03T02:14:52.727Z,23.76
2018-08-03T02:16:45.674Z,23.76
2018-08-03T02:17:45.678Z,23.75
2018-08-03T02:19:38.603Z,23.73
2018-08-03T02:20:38.630Z,23.68
2018-08-03T02:22:31.578Z,23.72
2018-08-03T02:23:31.582Z,23.70
2018-08-03T02:25:24.504Z,23.70
2018-08-03T02:26:24.532Z,23.66
2018-08-03T02:28:17.472Z,23.58
2018-08-03T02:29:17.479Z,23.58
2018-08-03T02:31:10.403Z,23.60
2018-08-03T02:32:10.429Z,23.51
2018-08-03T02:34:03.863Z,23.48
2018-08-03T02:35:03.879Z,23.51
2018-08-03T02:36:56.796Z,23.39
2018-08-03T02:37:56.824Z,23.54
2018-08-03T02:39:49.768Z,23.54
2018-08-03T02:40:49.776Z,23.43
2018-08-03T02:42:42.728Z,23.50
2018-08-03T02:43:42.731Z,23.35
2018-08-03T02:45:35.654Z,23.25
2018-08-03T02:46:35.682Z,23.31
2018-08-03T02:48:28.625Z,23.35
2018-08-03T02:49:28.636Z,23.28
2018-08-03T02:51:21.560Z,23.35
2018-08-03T02:52:21.586Z,23.28
2018-08-03T02:54:14.534Z,23.28
2018-08-03T02:55:14.537Z,23.27
2018-08-03T02:57:07.953Z,23.27
2018-08-03T02:58:07.981Z,23.23
2018-08-03T03:00:00.928Z,23.19
2018-08-03T03:01:00.933Z,23.12
2018-08-03T03:02:53.859Z,23.13
2018-08-03T03:03:53.890Z,23.07
2018-08-03T03:05:46.828Z,23.12
2018-08-03T03:06:46.837Z,23.05
2018-08-03T03:08:40.271Z,23.09
2018-08-03T03:09:40.284Z,23.02
2018-08-03T03:11:33.199Z,23.05
2018-08-03T03:12:33.226Z,22.97
2018-08-03T03:14:26.173Z,23.07
2018-08-03T03:15:26.182Z,22.97
2018-08-03T03:17:19.096Z,23.04
2018-08-03T03:18:19.126Z,22.95
2018-08-03T03:20:12.558Z,22.97
2018-08-03T03:21:12.566Z,23.07
2018-08-03T03:23:05.490Z,22.85
2018-08-03T03:24:05.520Z,22.94
2018-08-03T03:25:58.457Z,22.90
2018-08-03T03:26:58.465Z,22.88
2018-08-03T03:28:51.387Z,22.94
2018-08-03T03:29:51.417Z,22.91
2018-08-03T03:31:44.855Z,22.91
2018-08-03T03:32:44.942Z,22.90
2018-08-03T03:34:37.807Z,22.86
2018-08-03T03:35:37.809Z,22.83
2018-08-03T03:37:30.732Z,22.75
2018-08-03T03:38:30.760Z,22.77
2018-08-03T03:40:24.193Z,22.85
2018-08-03T03:41:24.204Z,22.67
2018-08-03T03:43:18.616Z,22.72
2018-08-03T03:44:18.642Z,22.67
2018-08-03T03:46:11.590Z,22.68
2018-08-03T03:47:11.601Z,22.70
2018-08-03T03:49:04.520Z,22.64
2018-08-03T03:50:04.543Z,22.67
2018-08-03T03:51:57.491Z,22.64
2018-08-03T03:52:57.495Z,22.70
2018-08-03T03:54:50.417Z,22.67
2018-08-03T03:55:50.444Z,22.65
2018-08-03T03:57:43.391Z,22.65
2018-08-03T03:58:43.395Z,22.67
2018-08-03T04:00:36.344Z,22.65
2018-08-03T04:01:36.351Z,22.65
2018-08-03T04:03:29.767Z,22.73
2018-08-03T04:04:29.796Z,22.68
2018-08-03T04:06:22.735Z,22.72
2018-08-03T04:07:22.741Z,22.83
2018-08-03T04:09:15.662Z,22.82
2018-08-03T04:10:15.691Z,22.77
2018-08-03T04:12:08.629Z,22.90
2018-08-03T04:13:08.638Z,22.85
2018-08-03T04:15:01.558Z,22.94
2018-08-03T04:16:01.589Z,23.01
2018-08-03T04:17:54.530Z,23.17
2018-08-03T04:18:54.536Z,23.17
2018-08-03T04:20:47.464Z,23.43
2018-08-03T04:21:47.490Z,23.48
2018-08-03T04:23:40.497Z,23.79
2018-08-03T04:24:40.501Z,23.90
2018-08-03T04:26:38.446Z,24.05
2018-08-03T04:27:38.452Z,24.28
2018-08-03T04:29:31.403Z,24.47
2018-08-03T04:30:31.427Z,24.55
2018-08-03T04:32:24.477Z,24.76
2018-08-03T04:33:24.488Z,24.93
2018-08-03T04:35:18.947Z,25.05
2018-08-03T04:36:18.974Z,25.18
2018-08-03T04:38:12.957Z,25.39
2018-08-03T04:39:12.952Z,25.52
2018-08-03T04:41:06.013Z,25.70
2018-08-03T04:42:06.038Z,25.87
2018-08-03T04:43:59.059Z,26.05
2018-08-03T04:44:59.065Z,26.28
2018-08-03T04:46:52.111Z,26.55
2018-08-03T04:47:52.122Z,26.66
2018-08-03T04:49:45.149Z,26.91
2018-08-03T04:50:45.181Z,27.03
2018-08-03T04:52:38.225Z,27.34
2018-08-03T04:53:38.237Z,27.37
2018-08-03T04:55:41.176Z,27.59
2018-08-03T04:56:41.205Z,27.75
2018-08-03T04:58:34.155Z,27.90
2018-08-03T04:59:34.155Z,28.06
2018-08-03T05:01:27.081Z,28.22
2018-08-03T05:02:27.108Z,28.30
2018-08-03T05:04:20.055Z,28.36
2018-08-03T05:05:20.066Z,28.54
2018-08-03T05:07:13.007Z,28.71
2018-08-03T05:08:13.015Z,28.71
2018-08-03T05:10:05.943Z,29.04
2018-08-03T05:11:05.971Z,29.11
2018-08-03T05:12:58.916Z,29.16
2018-08-03T05:13:58.924Z,29.16
2018-08-03T05:15:51.858Z,29.06
2018-08-03T05:16:51.886Z,29.00
2018-08-03T05:18:44.830Z,28.86
2018-08-03T05:19:44.839Z,28.64
2018-08-03T05:21:37.766Z,28.64
2018-08-03T05:22:37.791Z,28.56
2018-08-03T05:24:30.738Z,28.59
2018-08-03T05:25:30.746Z,28.52
2018-08-03T05:27:23.672Z,28.39
2018-08-03T05:28:23.700Z,28.24
2018-08-03T05:30:16.694Z,28.02
2018-08-03T05:31:16.653Z,27.92
2018-08-03T05:33:09.601Z,27.66
2018-08-03T05:34:09.606Z,27.57
2018-08-03T05:36:02.623Z,27.41
2018-08-03T05:37:02.560Z,27.27
2018-08-03T05:38:55.504Z,27.12
2018-08-03T05:39:55.513Z,27.10
2018-08-03T05:41:48.444Z,27.02
2018-08-03T05:42:48.468Z,27.07
2018-08-03T05:44:41.412Z,27.17
2018-08-03T05:45:41.424Z,27.10
2018-08-03T05:47:34.345Z,27.17
2018-08-03T05:48:34.373Z,27.10
2018-08-03T05:50:27.318Z,27.10
2018-08-03T05:51:27.334Z,27.19
2018-08-03T05:53:20.252Z,27.21
2018-08-03T05:54:20.284Z,27.22
2018-08-03T05:56:13.226Z,27.28
2018-08-03T05:57:13.232Z,27.40
2018-08-03T05:59:06.184Z,27.47
2018-08-03T06:00:06.189Z,27.63
2018-08-03T06:01:59.116Z,27.88
2018-08-03T06:02:59.147Z,28.14
2018-08-03T06:04:52.090Z,28.46
2018-08-03T06:05:52.098Z,28.77
2018-08-03T06:07:45.027Z,29.39
2018-08-03T06:08:45.057Z,29.78
2018-08-03T06:10:38.005Z,30.32
2018-08-03T06:11:38.013Z,30.75
2018-08-03T06:13:30.944Z,31.21
2018-08-03T06:14:30.973Z,31.44
2018-08-03T06:16:23.921Z,32.01
2018-08-03T06:17:23.934Z,32.21
2018-08-03T06:19:16.865Z,32.77
2018-08-03T06:20:16.897Z,32.92
2018-08-03T06:22:09.852Z,33.12
2018-08-03T06:23:09.861Z,33.29
2018-08-03T06:25:02.817Z,33.63
2018-08-03T06:26:02.826Z,33.65
2018-08-03T06:27:55.759Z,33.94
2018-08-03T06:28:55.794Z,33.97
2018-08-03T06:30:48.750Z,33.79
2018-08-03T06:31:48.764Z,33.93
2018-08-03T06:33:41.695Z,33.97
2018-08-03T06:34:41.725Z,33.97
2018-08-03T06:36:34.685Z,33.68
2018-08-03T06:37:34.697Z,33.54
2018-08-03T06:39:27.634Z,33.18
2018-08-03T06:40:27.666Z,33.01
2018-08-03T06:42:20.626Z,33.01
2018-08-03T06:43:20.636Z,33.32
2018-08-03T06:45:13.578Z,33.76
2018-08-03T06:46:13.614Z,34.08
2018-08-03T06:48:06.574Z,34.25
2018-08-03T06:49:06.583Z,34.22
2018-08-03T06:50:59.543Z,34.34
2018-08-03T06:51:59.557Z,34.42
2018-08-03T06:53:52.549Z,34.15
2018-08-03T06:54:52.528Z,34.21
2018-08-03T06:56:45.487Z,34.16
2018-08-03T06:57:45.500Z,34.05
2018-08-03T06:59:38.438Z,33.82
2018-08-03T07:00:38.478Z,33.95
2018-08-03T07:02:31.433Z,33.82
2018-08-03T07:03:31.444Z,33.88
2018-08-03T07:05:24.385Z,33.81
2018-08-03T07:06:24.420Z,33.73
2018-08-03T07:08:17.379Z,33.37
2018-08-03T07:09:17.395Z,33.34
2018-08-03T07:11:10.336Z,33.65
2018-08-03T07:12:10.372Z,33.66
2018-08-03T07:14:03.331Z,33.63
2018-08-03T07:15:03.350Z,33.75
2018-08-03T07:16:56.462Z,33.71
2018-08-03T07:17:56.476Z,33.60
2018-08-03T07:19:49.446Z,33.60
2018-08-03T07:20:49.456Z,33.50
2018-08-03T07:22:42.418Z,33.56
2018-08-03T07:23:42.426Z,33.44
2018-08-03T07:25:35.362Z,33.49
2018-08-03T07:26:35.412Z,33.51
2018-08-03T07:28:28.353Z,33.39
2018-08-03T07:29:28.360Z,33.23
2018-08-03T07:31:21.299Z,33.15
2018-08-03T07:32:21.332Z,32.89
2018-08-03T07:34:14.290Z,32.62
2018-08-03T07:35:14.300Z,32.62
2018-08-03T07:37:07.230Z,32.38
2018-08-03T07:38:07.263Z,32.43
2018-08-03T07:40:00.234Z,32.55
2018-08-03T07:41:00.238Z,32.56
2018-08-03T07:42:53.236Z,32.40
2018-08-03T07:43:53.200Z,32.33
2018-08-03T07:45:46.133Z,32.37
2018-08-03T07:46:46.161Z,32.50
2018-08-03T07:48:39.163Z,32.45
2018-08-03T07:49:39.125Z,32.50
2018-08-03T07:51:32.060Z,32.63
2018-08-03T07:52:32.138Z,32.48
2018-08-03T07:54:25.050Z,32.35
2018-08-03T07:55:25.060Z,32.35
2018-08-03T07:57:17.993Z,32.25
2018-08-03T07:58:18.026Z,32.10
2018-08-03T08:00:10.972Z,31.92
2018-08-03T08:01:10.983Z,31.84
2018-08-03T08:03:03.942Z,31.85
2018-08-03T08:04:03.944Z,31.95
2018-08-03T08:05:56.895Z,31.99
2018-08-03T08:06:56.906Z,32.03
2018-08-03T08:08:49.861Z,32.18
2018-08-03T08:09:49.868Z,32.11
2018-08-03T08:11:42.798Z,32.18
2018-08-03T08:12:42.830Z,32.11
2018-08-03T08:14:35.778Z,32.18
2018-08-03T08:15:35.856Z,32.30
2018-08-03T08:17:28.718Z,32.29
2018-08-03T08:18:28.755Z,32.30
2018-08-03T08:20:21.699Z,32.51
2018-08-03T08:21:21.713Z,32.57
2018-08-03T08:23:14.645Z,32.48
2018-08-03T08:24:14.676Z,32.55
2018-08-03T08:26:07.645Z,32.47
2018-08-03T08:27:07.639Z,32.59
2018-08-03T08:29:00.569Z,32.67
2018-08-03T08:30:00.602Z,32.69
2018-08-03T08:31:53.553Z,32.77
2018-08-03T08:32:53.562Z,32.81
2018-08-03T08:34:46.518Z,32.97
2018-08-03T08:35:46.526Z,33.03
2018-08-03T08:37:39.454Z,33.26
2018-08-03T08:38:39.487Z,33.21
2018-08-03T08:40:32.441Z,33.35
2018-08-03T08:41:32.447Z,33.38
2018-08-03T08:43:25.413Z,33.41
2018-08-03T08:44:25.425Z,33.39
2018-08-03T08:46:18.357Z,33.37
2018-08-03T08:47:18.369Z,33.38
2018-08-03T08:49:11.352Z,33.34
2018-08-03T08:50:11.336Z,33.53
2018-08-03T08:52:04.288Z,33.53
2018-08-03T08:53:04.299Z,33.39
2018-08-03T08:54:57.231Z,33.42
2018-08-03T08:55:57.265Z,33.47
2018-08-03T08:57:50.229Z,33.65
2018-08-03T08:58:50.252Z,33.66
2018-08-03T09:00:43.199Z,33.65
2018-08-03T09:01:43.205Z,33.72
2018-08-03T09:03:36.139Z,33.78
2018-08-03T09:04:36.166Z,33.73
2018-08-03T09:06:29.122Z,33.66
2018-08-03T09:07:29.178Z,33.66
2018-08-03T09:09:22.061Z,33.68
2018-08-03T09:10:22.090Z,33.75
2018-08-03T09:12:15.041Z,33.82
2018-08-03T09:13:15.086Z,33.90
2018-08-03T09:15:07.984Z,33.82
2018-08-03T09:16:08.017Z,33.66
2018-08-03T09:18:00.972Z,33.56
2018-08-03T09:19:01.000Z,33.59
2018-08-03T09:20:53.907Z,33.42
2018-08-03T09:21:53.940Z,33.57
2018-08-03T09:23:46.896Z,33.59
2018-08-03T09:24:47.016Z,33.68
2018-08-03T09:26:39.866Z,33.71
2018-08-03T09:27:39.880Z,33.69
2018-08-03T09:29:32.806Z,33.78
2018-08-03T09:30:32.838Z,33.79
2018-08-03T09:32:25.797Z,33.78
2018-08-03T09:33:25.806Z,33.86
2018-08-03T09:35:18.738Z,33.94
2018-08-03T09:36:18.771Z,33.86
2018-08-03T09:38:11.727Z,34.00
2018-08-03T09:39:11.750Z,33.98
2018-08-03T09:41:04.667Z,34.17
2018-08-03T09:42:04.699Z,34.15
2018-08-03T09:43:57.654Z,34.05
2018-08-03T09:44:57.661Z,34.06
2018-08-03T09:46:50.651Z,34.06
2018-08-03T09:47:50.637Z,34.05
2018-08-03T09:49:43.574Z,34.17
2018-08-03T09:50:43.584Z,34.35
2018-08-03T09:52:36.542Z,34.44
2018-08-03T09:53:36.550Z,34.59
2018-08-03T09:55:29.649Z,34.69
2018-08-03T09:56:29.680Z,34.77
2018-08-03T09:58:22.642Z,34.58
2018-08-03T09:59:22.653Z,34.52
2018-08-03T10:01:15.585Z,34.52
2018-08-03T10:02:15.623Z,34.58
2018-08-03T10:04:08.575Z,34.65
2018-08-03T10:05:08.582Z,34.62
2018-08-03T10:07:01.515Z,34.70
2018-08-03T10:08:01.545Z,34.72
2018-08-03T10:09:54.702Z,34.54
2018-08-03T10:10:54.509Z,34.47
2018-08-03T10:12:47.480Z,34.40
2018-08-03T10:13:47.474Z,34.37
2018-08-03T10:15:40.588Z,34.25
2018-08-03T10:16:40.436Z,34.22
2018-08-03T10:18:33.396Z,34.19
2018-08-03T10:19:33.408Z,34.15
2018-08-03T10:21:26.333Z,34.12
2018-08-03T10:22:26.416Z,34.15
2018-08-03T10:24:19.323Z,34.16
2018-08-03T10:25:19.334Z,34.24
2018-08-03T10:27:12.268Z,34.31
2018-08-03T10:28:12.302Z,34.43
2018-08-03T10:30:05.259Z,34.47
2018-08-03T10:31:05.266Z,34.44
2018-08-03T10:32:58.205Z,34.43
2018-08-03T10:33:58.238Z,34.49
2018-08-03T10:35:51.189Z,34.59
2018-08-03T10:36:51.203Z,34.65
2018-08-03T10:38:44.169Z,34.70
2018-08-03T10:39:44.166Z,34.73
2018-08-03T10:41:37.100Z,34.54
2018-08-03T10:42:37.136Z,34.46
2018-08-03T10:44:30.091Z,34.49
2018-08-03T10:45:30.103Z,34.39
2018-08-03T10:47:23.035Z,34.50
2018-08-03T10:48:23.066Z,34.46
2018-08-03T10:50:16.020Z,34.73
2018-08-03T10:51:16.073Z,34.73
2018-08-03T10:53:08.965Z,34.73
2018-08-03T10:54:08.998Z,34.59
2018-08-03T10:56:01.952Z,34.62
2018-08-03T10:57:01.959Z,34.62
2018-08-03T10:58:54.892Z,34.82
2018-08-03T10:59:54.924Z,34.87
2018-08-03T11:01:47.881Z,34.99
2018-08-03T11:02:47.889Z,35.04
2018-08-03T11:04:40.846Z,35.10
2018-08-03T11:05:40.853Z,35.03
2018-08-03T11:07:33.799Z,35.02
2018-08-03T11:08:33.834Z,35.21
2018-08-03T11:10:26.791Z,35.14
2018-08-03T11:11:26.799Z,35.34
2018-08-03T11:13:19.779Z,35.37
2018-08-03T11:14:19.778Z,35.44
2018-08-03T11:16:12.735Z,35.70
2018-08-03T11:17:12.745Z,35.53
2018-08-03T11:19:05.676Z,35.72
2018-08-03T11:20:05.710Z,35.81
2018-08-03T11:21:58.667Z,36.08
2018-08-03T11:22:58.680Z,36.20
2018-08-03T11:24:51.617Z,36.20
2018-08-03T11:25:51.644Z,36.16
2018-08-03T11:27:44.601Z,36.32
2018-08-03T11:28:44.614Z,36.46
2018-08-03T11:30:37.570Z,36.57
2018-08-03T11:31:37.579Z,36.54
2018-08-03T11:33:30.514Z,36.66
2018-08-03T11:34:30.589Z,36.68
2018-08-03T11:36:23.505Z,36.83
2018-08-03T11:37:23.519Z,36.84
2018-08-03T11:39:16.446Z,37.00
2018-08-03T11:40:16.481Z,36.99
2018-08-03T11:42:09.439Z,36.90
2018-08-03T11:43:09.449Z,36.81
2018-08-03T11:45:02.385Z,36.71
2018-08-03T11:46:02.417Z,36.50
2018-08-03T11:47:55.369Z,36.34
2018-08-03T11:48:55.383Z,36.31
2018-08-03T11:50:48.321Z,36.15
2018-08-03T11:51:48.350Z,36.08
2018-08-03T11:53:41.309Z,35.85
2018-08-03T11:54:41.325Z,35.89
2018-08-03T11:56:34.301Z,35.72
2018-08-03T11:57:34.289Z,35.71
2018-08-03T11:59:27.249Z,35.68
2018-08-03T12:00:27.258Z,35.59
2018-08-03T12:02:20.218Z,35.65
2018-08-03T12:03:20.225Z,35.65
2018-08-03T12:05:13.158Z,35.78
2018-08-03T12:06:13.192Z,35.58
2018-08-03T12:08:06.156Z,35.62
2018-08-03T12:09:06.159Z,35.63
2018-08-03T12:10:59.101Z,35.58
2018-08-03T12:11:59.132Z,35.59
2018-08-03T12:13:52.090Z,35.81
2018-08-03T12:14:52.102Z,35.82
2018-08-03T12:16:45.039Z,36.03
2018-08-03T12:17:45.209Z,36.05
2018-08-03T12:19:38.029Z,36.17
2018-08-03T12:20:38.039Z,36.08
2018-08-03T12:22:30.997Z,36.22
2018-08-03T12:23:31.022Z,36.37
2018-08-03T12:25:23.940Z,36.51
2018-08-03T12:26:23.974Z,36.53
2018-08-03T12:28:16.926Z,36.66
2018-08-03T12:29:16.939Z,36.81
2018-08-03T12:31:09.906Z,36.90
2018-08-03T12:32:09.906Z,36.91
2018-08-03T12:34:02.865Z,36.84
2018-08-03T12:35:02.875Z,36.66
2018-08-03T12:36:55.836Z,36.39
2018-08-03T12:37:55.844Z,36.35
2018-08-03T12:39:48.801Z,36.39
2018-08-03T12:40:48.812Z,36.29
2018-08-03T12:42:41.804Z,36.38
2018-08-03T12:43:41.788Z,36.38
2018-08-03T12:45:34.723Z,36.28
2018-08-03T12:46:34.758Z,36.27
2018-08-03T12:48:27.717Z,36.12
2018-08-03T12:49:27.724Z,36.20
2018-08-03T12:51:20.662Z,36.13
2018-08-03T12:52:20.694Z,36.19
2018-08-03T12:54:13.654Z,35.97
2018-08-03T12:55:13.665Z,35.81
2018-08-03T12:57:06.602Z,35.66
2018-08-03T12:58:06.633Z,35.60
2018-08-03T12:59:59.585Z,35.50
2018-08-03T13:00:59.600Z,35.44
2018-08-03T13:02:52.568Z,35.59
2018-08-03T13:03:52.573Z,35.72
2018-08-03T13:05:45.505Z,35.75
2018-08-03T13:06:45.538Z,35.63
2018-08-03T13:08:38.500Z,35.59
2018-08-03T13:09:38.506Z,35.58
2018-08-03T13:11:31.444Z,35.63
2018-08-03T13:12:31.477Z,35.72
2018-08-03T13:14:24.434Z,35.84
2018-08-03T13:15:24.445Z,35.94
2018-08-03T13:17:17.377Z,36.09
2018-08-03T13:18:17.411Z,36.12
2018-08-03T13:20:10.420Z,36.08
2018-08-03T13:21:10.493Z,36.22
2018-08-03T13:23:03.400Z,36.22
2018-08-03T13:24:03.439Z,36.15
2018-08-03T13:25:56.336Z,36.34
2018-08-03T13:26:56.376Z,36.34
2018-08-03T13:28:49.329Z,36.27
2018-08-03T13:29:49.339Z,36.12
2018-08-03T13:31:42.279Z,36.15
2018-08-03T13:32:42.313Z,36.38
2018-08-03T13:34:35.278Z,36.68
2018-08-03T13:35:35.285Z,36.80
2018-08-03T13:37:28.215Z,36.76
2018-08-03T13:38:28.249Z,36.71
2018-08-03T13:40:21.208Z,36.87
2018-08-03T13:41:21.219Z,36.94
2018-08-03T13:43:14.178Z,37.10
2018-08-03T13:44:14.189Z,37.13
2018-08-03T13:46:07.148Z,37.22
2018-08-03T13:47:07.158Z,37.22
2018-08-03T13:49:00.117Z,37.17
2018-08-03T13:50:00.127Z,37.18
2018-08-03T13:51:53.062Z,37.13
2018-08-03T13:52:53.095Z,37.05
2018-08-03T13:54:46.048Z,36.93
2018-08-03T13:55:46.063Z,36.80
2018-08-03T13:57:39.028Z,36.68
2018-08-03T13:58:39.029Z,36.49
2018-08-03T14:00:31.989Z,36.37
2018-08-03T14:01:32.003Z,36.44
2018-08-03T14:03:24.935Z,36.49
2018-08-03T14:04:25.017Z,36.32
2018-08-03T14:06:17.967Z,36.28
2018-08-03T14:07:17.971Z,36.13
2018-08-03T14:09:10.935Z,36.16
2018-08-03T14:10:10.938Z,36.20
2018-08-03T14:12:03.910Z,36.32
2018-08-03T14:13:03.908Z,36.35
2018-08-03T14:14:56.867Z,36.46
2018-08-03T14:15:56.877Z,36.54
2018-08-03T14:17:49.811Z,36.68
2018-08-03T14:18:49.845Z,36.80
2018-08-03T14:20:42.803Z,36.87
2018-08-03T14:21:42.814Z,36.95
2018-08-03T14:23:35.749Z,37.13
2018-08-03T14:24:35.782Z,37.24
2018-08-03T14:26:28.739Z,37.31
2018-08-03T14:27:28.748Z,37.28
2018-08-03T14:29:21.707Z,37.20
2018-08-03T14:30:21.717Z,37.05
2018-08-03T14:32:14.654Z,36.95
2018-08-03T14:33:14.688Z,36.98
2018-08-03T14:35:07.646Z,36.93
2018-08-03T14:36:07.659Z,36.75
2018-08-03T14:38:00.622Z,36.54
2018-08-03T14:39:00.630Z,36.51
2018-08-03T14:40:53.583Z,36.31
2018-08-03T14:41:53.593Z,36.39
2018-08-03T14:43:46.528Z,36.34
2018-08-03T14:44:46.563Z,36.46
2018-08-03T14:46:39.520Z,36.56
2018-08-03T14:47:39.528Z,36.57
2018-08-03T14:49:32.486Z,36.50
2018-08-03T14:50:32.494Z,36.46
2018-08-03T14:52:25.431Z,36.41
2018-08-03T14:53:25.464Z,36.37
2018-08-03T14:55:18.476Z,36.47
2018-08-03T14:56:18.436Z,36.51
2018-08-03T14:58:11.397Z,36.64
2018-08-03T14:59:12.968Z,36.44
2018-08-03T15:01:04.852Z,36.53
2018-08-03T15:02:04.871Z,36.49
2018-08-03T15:03:57.799Z,36.46
2018-08-03T15:04:57.837Z,36.41
2018-08-03T15:06:50.828Z,36.34
2018-08-03T15:07:50.925Z,36.44
2018-08-03T15:09:43.797Z,36.38
2018-08-03T15:10:43.807Z,36.43
2018-08-03T15:12:36.743Z,36.31
2018-08-03T15:13:36.778Z,36.34
2018-08-03T15:15:29.730Z,36.22
2018-08-03T15:16:29.842Z,36.29
2018-08-03T15:18:22.677Z,36.56
2018-08-03T15:19:22.814Z,36.68
2018-08-03T15:21:15.763Z,36.66
2018-08-03T15:22:15.716Z,36.60
2018-08-03T15:24:08.667Z,36.51
2018-08-03T15:25:08.732Z,36.56
2018-08-03T15:27:01.657Z,36.59
2018-08-03T15:28:01.666Z,36.51
2018-08-03T15:29:54.663Z,36.62
2018-08-03T15:30:54.634Z,36.62
2018-08-03T15:32:47.566Z,36.69
2018-08-03T15:33:47.602Z,36.73
2018-08-03T15:35:40.575Z,36.68
2018-08-03T15:36:40.708Z,36.73
2018-08-03T15:38:33.511Z,36.83
2018-08-03T15:39:33.541Z,36.72
2018-08-03T15:41:26.499Z,36.87
2018-08-03T15:42:26.511Z,36.81
2018-08-03T15:44:19.443Z,36.88
2018-08-03T15:45:19.479Z,36.88
2018-08-03T15:47:12.463Z,36.91
2018-08-03T15:48:12.445Z,36.93
2018-08-03T15:50:05.412Z,36.95
2018-08-03T15:51:05.413Z,37.02
2018-08-03T15:52:58.349Z,36.84
2018-08-03T15:53:58.383Z,36.80
2018-08-03T15:55:51.340Z,36.90
2018-08-03T15:56:51.351Z,36.87
2018-08-03T15:58:44.296Z,36.81
2018-08-03T15:59:44.319Z,36.87
2018-08-03T16:01:37.278Z,36.78
2018-08-03T16:02:37.287Z,36.85
2018-08-03T16:04:30.228Z,36.85
2018-08-03T16:05:30.255Z,36.91
2018-08-03T16:07:23.212Z,36.93
2018-08-03T16:08:23.224Z,36.93
2018-08-03T16:10:16.179Z,36.85
2018-08-03T16:11:16.189Z,36.87
2018-08-03T16:13:09.125Z,36.87
2018-08-03T16:14:09.165Z,36.93
2018-08-03T16:16:02.118Z,37.03
2018-08-03T16:17:02.128Z,36.99
2018-08-03T16:18:55.109Z,36.80
2018-08-03T16:19:55.101Z,36.73
2018-08-03T16:21:48.056Z,36.71
2018-08-03T16:22:48.065Z,36.68
2018-08-03T16:24:41.003Z,36.72
2018-08-03T16:25:41.071Z,36.76
2018-08-03T16:27:33.991Z,36.78
2018-08-03T16:28:34.008Z,36.81
2018-08-03T16:30:26.957Z,36.78
2018-08-03T16:31:26.970Z,36.88
2018-08-03T16:33:19.905Z,36.81
2018-08-03T16:34:19.938Z,36.75
2018-08-03T16:36:12.896Z,36.65
2018-08-03T16:37:12.905Z,36.68
2018-08-03T16:39:05.838Z,36.53
2018-08-03T16:40:05.870Z,36.37
2018-08-03T16:41:58.828Z,36.38
2018-08-03T16:42:58.841Z,36.29
2018-08-03T16:44:51.775Z,36.35
2018-08-03T16:45:51.808Z,36.46
2018-08-03T16:47:44.765Z,36.60
2018-08-03T16:48:44.773Z,36.53
2018-08-03T16:50:37.733Z,36.44
2018-08-03T16:51:37.743Z,36.46
2018-08-03T16:53:30.674Z,36.44
2018-08-03T16:54:30.708Z,36.32
2018-08-03T16:56:23.666Z,36.34
2018-08-03T16:57:23.677Z,36.20
2018-08-03T16:59:17.103Z,36.17
2018-08-03T17:00:17.140Z,36.09
2018-08-03T17:02:10.097Z,36.05
2018-08-03T17:03:10.110Z,35.99
2018-08-03T17:05:03.039Z,36.07
2018-08-03T17:06:03.074Z,36.09
2018-08-03T17:07:56.031Z,36.08
2018-08-03T17:08:56.097Z,36.12
2018-08-03T17:10:48.994Z,36.13
2018-08-03T17:11:49.007Z,36.12
2018-08-03T17:13:41.942Z,35.87
2018-08-03T17:14:41.976Z,35.84
2018-08-03T17:16:34.925Z,35.90
2018-08-03T17:17:34.941Z,35.72
2018-08-03T17:19:27.873Z,35.75
2018-08-03T17:20:27.906Z,35.68
2018-08-03T17:22:20.863Z,35.52
2018-08-03T17:23:20.873Z,35.50
2018-08-03T17:25:13.812Z,35.28
2018-08-03T17:26:13.845Z,35.29
2018-08-03T17:28:06.875Z,35.16
2018-08-03T17:29:06.809Z,35.07
2018-08-03T17:30:59.767Z,35.11
2018-08-03T17:31:59.818Z,35.16
2018-08-03T17:33:52.707Z,35.04
2018-08-03T17:34:52.741Z,34.96
2018-08-03T17:36:45.704Z,35.07
2018-08-03T17:37:45.705Z,35.14
2018-08-03T17:39:38.635Z,35.15
2018-08-03T17:40:38.670Z,35.07
2018-08-03T17:42:31.708Z,35.11
2018-08-03T17:43:31.633Z,35.18
2018-08-03T17:45:24.583Z,35.16
2018-08-03T17:46:24.597Z,35.14
2018-08-03T17:48:17.554Z,35.03
2018-08-03T17:49:17.565Z,35.03
2018-08-03T17:51:10.521Z,35.07
2018-08-03T17:52:10.532Z,35.03
2018-08-03T17:54:03.465Z,35.00
2018-08-03T17:55:03.497Z,35.07
2018-08-03T17:56:56.463Z,34.97
2018-08-03T17:57:56.461Z,34.99
2018-08-03T17:59:49.397Z,35.03
2018-08-03T18:00:49.428Z,34.91
2018-08-03T18:02:42.383Z,34.82
2018-08-03T18:03:42.394Z,34.92
2018-08-03T18:05:35.327Z,35.02
2018-08-03T18:06:35.359Z,34.88
2018-08-03T18:08:28.314Z,35.16
2018-08-03T18:09:28.376Z,35.29
2018-08-03T18:11:21.280Z,35.40
2018-08-03T18:12:21.289Z,35.34
2018-08-03T18:14:14.224Z,35.50
2018-08-03T18:15:14.256Z,35.48
2018-08-03T18:17:07.212Z,35.53
2018-08-03T18:18:07.223Z,35.60
2018-08-03T18:20:00.162Z,35.37
2018-08-03T18:21:00.194Z,35.23
2018-08-03T18:22:53.151Z,35.02
2018-08-03T18:23:53.163Z,34.94
2018-08-03T18:25:46.098Z,34.85
2018-08-03T18:26:46.129Z,34.82
2018-08-03T18:28:39.118Z,34.62
2018-08-03T18:29:39.094Z,34.43
2018-08-03T18:31:32.043Z,34.15
2018-08-03T18:32:32.057Z,33.91
2018-08-03T18:34:24.987Z,33.73